Time;durP1;ratioP1;P1;durP2;ratioP2;P2;SDS_P1;SDS_P2;PMS_P1;PMS_P2;Temp;Humidity;BMP_temperature;BMP_pressure;BME280_temperature;BME280_humidity;BME280_pressure;Samples;Min_cycle;Max_cycle;Signal;HPM_P1;HPM_P2
2023/01/15 05:30:18;;;;;;;0.95;0.75;;;7.40;74.10;;;;;;5882390;23;20034;-74
2023/01/15 05:32:44;;;;;;;1.45;0.90;;;7.40;74.30;;;;;;4935861;29;20145;-74
2023/01/15 05:35:09;;;;;;;1.30;1.20;;;7.50;74.30;;;;;;4936494;29;20086;-74
2023/01/15 05:37:35;;;;;;;3.22;1.30;;;7.50;74.10;;;;;;4921012;29;20525;-75
2023/01/15 05:40:00;;;;;;;1.20;1.10;;;7.50;74.40;;;;;;4919772;29;20122;-75
2023/01/15 05:42:26;;;;;;;6.70;1.33;;;7.50;74.30;;;;;;4926113;29;20028;-74
2023/01/15 05:44:54;;;;;;;4.22;1.17;;;7.40;74.50;;;;;;4918655;29;20779;-74
2023/01/15 05:47:20;;;;;;;1.35;1.08;;;7.40;74.60;;;;;;4901929;29;20406;-75
2023/01/15 05:49:47;;;;;;;1.35;0.93;;;7.40;74.70;;;;;;4918775;29;20024;-75
2023/01/15 05:52:13;;;;;;;1.67;0.98;;;7.30;74.60;;;;;;4917441;29;20052;-75
2023/01/15 05:54:38;;;;;;;4.63;1.20;;;7.30;74.60;;;;;;4919849;29;20495;-75
2023/01/15 05:57:04;;;;;;;1.80;1.45;;;7.40;75.00;;;;;;4917705;29;20039;-75
2023/01/15 05:59:31;;;;;;;5.70;1.30;;;7.40;74.40;;;;;;4920379;29;20039;-76
2023/01/15 06:01:59;;;;;;;3.47;1.40;;;7.40;74.60;;;;;;4918618;29;20079;-76
2023/01/15 06:04:25;;;;;;;3.13;1.10;;;7.30;74.90;;;;;;4934143;29;20107;-75
2023/01/15 06:06:53;;;;;;;3.65;1.42;;;7.20;74.70;;;;;;4908211;29;20043;-76
2023/01/15 06:09:19;;;;;;;9.10;1.30;;;7.20;74.80;;;;;;4937062;29;20475;-76
2023/01/15 06:11:46;;;;;;;1.23;1.13;;;7.20;74.70;;;;;;4934820;29;20094;-76
2023/01/15 06:14:12;;;;;;;1.17;1.10;;;7.30;75.00;;;;;;4901558;29;20043;-75
2023/01/15 06:16:38;;;;;;;6.00;1.35;;;7.20;74.60;;;;;;4918788;29;20160;-76
2023/01/15 06:19:05;;;;;;;1.45;1.00;;;7.20;74.70;;;;;;4920372;29;20067;-75
2023/01/15 06:21:33;;;;;;;4.60;1.23;;;7.30;74.70;;;;;;4924653;29;20024;-76
2023/01/15 06:23:59;;;;;;;5.75;1.20;;;7.30;74.20;;;;;;4921974;29;20040;-75
2023/01/15 06:26:25;;;;;;;7.50;1.77;;;7.20;74.30;;;;;;4922142;29;20051;-76
2023/01/15 06:28:51;;;;;;;5.75;1.38;;;7.20;74.00;;;;;;4923825;29;20412;-76
2023/01/15 06:31:19;;;;;;;4.60;1.40;;;7.20;73.80;;;;;;4940737;29;20099;-75
2023/01/15 06:33:45;;;;;;;3.90;1.20;;;7.20;74.20;;;;;;4940916;29;20059;-76
2023/01/15 06:36:20;;;;;;;3.42;1.55;;;7.20;74.20;;;;;;4924170;29;20028;-75
2023/01/15 06:38:46;;;;;;;2.97;1.33;;;7.10;74.10;;;;;;4905359;29;20086;-76
2023/01/15 06:49:36;;;;;;;3.13;1.00;;;7.20;73.50;;;;;;4921635;29;20051;-76
2023/01/15 06:52:02;;;;;;;2.65;1.23;;;7.20;73.30;;;;;;4941089;29;20103;-75
2023/01/15 06:54:28;;;;;;;4.13;1.27;;;7.20;73.50;;;;;;4940437;29;20718;-75
2023/01/15 06:56:54;;;;;;;1.25;1.00;;;7.20;73.50;;;;;;4926418;29;20080;-75
2023/01/15 06:59:27;;;;;;;5.18;1.00;;;7.20;73.40;;;;;;4921583;29;20044;-75
2023/01/15 07:01:53;;;;;;;1.38;1.10;;;7.10;73.80;;;;;;4904543;29;20444;-76
2023/01/15 07:04:19;;;;;;;5.65;1.60;;;7.20;74.10;;;;;;4921452;29;20115;-75
2023/01/15 07:06:44;;;;;;;1.33;1.23;;;7.10;74.00;;;;;;4940141;29;20026;-76
2023/01/15 07:09:11;;;;;;;2.42;1.05;;;7.20;73.90;;;;;;4938973;29;20055;-74
2023/01/15 07:11:48;;;;;;;3.28;1.10;;;7.10;74.00;;;;;;4927541;29;20121;-73
2023/01/15 07:14:19;;;;;;;1.25;1.02;;;7.20;73.80;;;;;;4909064;29;20040;-73
2023/01/15 07:16:45;;;;;;;1.48;1.30;;;7.20;73.80;;;;;;4915060;29;20059;-74
2023/01/15 07:19:10;;;;;;;2.75;1.38;;;7.20;73.60;;;;;;4926006;29;20490;-73
2023/01/15 07:21:44;;;;;;;4.10;1.20;;;7.20;73.80;;;;;;4938994;29;20111;-74
2023/01/15 07:24:10;;;;;;;9.32;1.95;;;7.20;73.50;;;;;;4938581;29;20570;-74
2023/01/15 07:26:36;;;;;;;1.10;0.82;;;7.20;73.40;;;;;;4937724;29;20016;-74
2023/01/15 07:29:02;;;;;;;3.53;1.42;;;7.20;73.40;;;;;;4939181;29;20031;-74
2023/01/15 07:31:28;;;;;;;3.72;1.67;;;7.20;73.50;;;;;;4935795;29;20067;-74
2023/01/15 07:33:57;;;;;;;2.65;1.42;;;7.20;73.70;;;;;;4931608;29;20064;-73
2023/01/15 07:36:24;;;;;;;1.08;0.98;;;7.20;73.50;;;;;;4921001;29;20497;-78
2023/01/15 07:38:49;;;;;;;4.20;1.38;;;7.20;73.40;;;;;;4904105;29;20119;-77
2023/01/15 07:49:47;;;;;;;1.77;1.10;;;7.20;73.90;;;;;;4927159;29;20027;-75
2023/01/15 07:52:20;;;;;;;3.55;1.83;;;7.20;74.00;;;;;;4908871;29;20467;-75
2023/01/15 07:54:47;;;;;;;3.72;1.50;;;7.20;74.10;;;;;;4931778;29;20031;-75
2023/01/15 07:57:17;;;;;;;1.90;0.93;;;7.10;74.20;;;;;;4935161;29;20020;-75
2023/01/15 07:59:43;;;;;;;7.32;2.13;;;7.20;74.10;;;;;;4925694;29;20039;-76
2023/01/15 08:02:09;;;;;;;5.53;1.10;;;7.20;74.20;;;;;;4935501;29;20032;-75
2023/01/15 08:04:35;;;;;;;1.45;1.33;;;7.20;74.30;;;;;;4921374;29;20483;-75
2023/01/15 08:07:02;;;;;;;6.53;1.80;;;7.20;74.30;;;;;;4925405;29;20028;-76
2023/01/15 08:09:28;;;;;;;5.18;1.48;;;7.20;74.30;;;;;;4938867;29;20035;-76
2023/01/15 08:20:25;;;;;;;3.90;1.13;;;7.30;74.20;;;;;;4925775;29;19919;-77
2023/01/15 08:22:51;;;;;;;2.13;1.27;;;7.30;74.00;;;;;;4922759;29;20060;-77
2023/01/15 08:25:19;;;;;;;7.93;2.05;;;7.30;74.40;;;;;;4914512;29;20058;-76
2023/01/15 08:27:46;;;;;;;1.65;1.27;;;7.30;74.50;;;;;;4931580;29;20032;-76
2023/01/15 08:30:15;;;;;;;7.05;2.40;;;7.40;74.40;;;;;;4930749;29;21128;-76
2023/01/15 08:32:41;;;;;;;3.55;1.50;;;7.40;74.20;;;;;;4927745;29;20036;-76
2023/01/15 08:35:07;;;;;;;1.85;1.48;;;7.40;74.40;;;;;;4911169;29;20036;-76
2023/01/15 08:37:33;;;;;;;6.68;1.38;;;7.50;74.40;;;;;;4913652;29;20036;-76
2023/01/15 08:39:59;;;;;;;3.90;2.05;;;7.50;74.40;;;;;;4920570;29;20058;-76
2023/01/15 08:42:24;;;;;;;2.65;1.48;;;7.50;74.60;;;;;;4932551;29;20036;-76
2023/01/15 08:44:50;;;;;;;4.95;1.42;;;7.60;74.50;;;;;;4931783;29;20027;-76
2023/01/15 08:47:16;;;;;;;1.17;1.08;;;7.60;74.30;;;;;;4940499;29;20031;-76
2023/01/15 08:49:42;;;;;;;4.63;1.80;;;7.70;74.30;;;;;;4928225;29;20028;-76
2023/01/15 08:52:08;;;;;;;5.13;1.73;;;7.70;74.10;;;;;;4922816;29;20513;-76
2023/01/15 08:54:34;;;;;;;2.47;1.80;;;7.70;73.90;;;;;;4920618;29;20027;-76
2023/01/15 08:56:59;;;;;;;3.97;1.55;;;7.80;73.90;;;;;;4915991;29;20614;-76
2023/01/15 08:59:26;;;;;;;2.67;1.48;;;7.80;74.10;;;;;;4925906;29;20027;-76
2023/01/15 09:01:52;;;;;;;6.85;1.70;;;7.80;74.00;;;;;;4912961;29;20035;-77
2023/01/15 09:04:20;;;;;;;6.03;2.78;;;7.80;73.90;;;;;;4890194;29;20059;-76
2023/01/15 09:06:47;;;;;;;4.10;1.83;;;7.90;74.10;;;;;;4926551;29;20091;-76
2023/01/15 09:09:13;;;;;;;7.50;1.83;;;7.90;74.10;;;;;;4914387;29;20028;-76
2023/01/15 09:11:40;;;;;;;6.38;2.63;;;7.90;73.80;;;;;;4930615;29;20777;-76
2023/01/15 09:14:11;;;;;;;6.35;1.55;;;8.00;73.80;;;;;;4944486;29;20027;-77
2023/01/15 09:16:37;;;;;;;2.35;1.38;;;8.10;73.90;;;;;;4915955;29;20473;-76
2023/01/15 09:19:05;;;;;;;3.10;1.30;;;8.10;73.70;;;;;;4932640;29;20077;-76
2023/01/15 09:21:31;;;;;;;4.85;1.60;;;8.10;73.60;;;;;;4942880;29;20035;-76
2023/01/15 09:23:57;;;;;;;2.58;1.13;;;8.10;73.70;;;;;;4932875;29;20115;-77
2023/01/15 09:26:27;;;;;;;8.50;1.80;;;8.20;73.40;;;;;;4918008;29;20035;-74
2023/01/15 09:28:53;;;;;;;8.43;1.95;;;8.30;73.30;;;;;;4936456;29;20142;-75
2023/01/15 09:31:20;;;;;;;2.47;1.33;;;8.60;72.60;;;;;;4913984;29;20055;-76
2023/01/15 09:33:45;;;;;;;5.40;3.75;;;9.00;71.90;;;;;;4929183;29;20030;-75
2023/01/15 09:36:21;;;;;;;3.38;3.10;;;9.70;69.20;;;;;;4930085;29;20032;-76
2023/01/15 09:38:48;;;;;;;2.92;2.22;;;10.50;67.60;;;;;;4918167;29;20067;-76
2023/01/15 09:44:14;;;;;;;5.95;2.38;;;11.70;62.80;;;;;;4933909;29;20130;-76
2023/01/15 09:47:01;;;;;;;3.38;1.10;;;11.90;62.10;;;;;;4916275;29;20091;-75
2023/01/15 09:49:51;;;;;;;5.53;1.10;;;11.60;61.00;;;;;;4933308;29;20406;-75
2023/01/15 09:52:38;;;;;;;4.68;0.90;;;10.90;63.00;;;;;;4933760;29;20034;-75
2023/01/15 09:55:14;;;;;;;2.13;1.00;;;10.30;64.60;;;;;;4931221;29;20048;-75
2023/01/15 09:57:40;;;;;;;2.88;1.13;;;10.00;66.00;;;;;;4936688;29;20091;-75
2023/01/15 10:00:13;;;;;;;5.55;1.10;;;9.70;66.80;;;;;;4922452;29;20031;-75
2023/01/15 10:02:47;;;;;;;8.23;2.53;;;9.60;68.00;;;;;;4935955;29;20024;-75
2023/01/15 10:05:29;;;;;;;7.50;2.15;;;9.50;68.10;;;;;;4938205;29;20415;-74
2023/01/15 10:08:04;;;;;;;4.90;1.30;;;9.50;68.60;;;;;;4933906;29;20148;-74
2023/01/15 10:10:39;;;;;;;3.58;1.85;;;9.40;69.30;;;;;;4918177;29;20397;-74
2023/01/15 10:13:21;;;;;;;4.60;1.63;;;9.30;69.70;;;;;;4938738;29;20032;-75
2023/01/15 10:15:47;;;;;;;5.43;1.67;;;9.40;70.10;;;;;;4938468;29;20030;-75
2023/01/15 10:18:17;;;;;;;3.30;1.08;;;9.50;69.70;;;;;;4906802;29;20550;-76
2023/01/15 10:21:10;;;;;;;7.03;1.80;;;9.60;69.60;;;;;;4937170;29;20047;-75
2023/01/15 10:23:56;;;;;;;8.95;1.48;;;9.60;69.40;;;;;;4940199;29;20098;-76
2023/01/15 10:26:53;;;;;;;6.97;1.35;;;9.70;69.70;;;;;;4927210;29;20032;-76
2023/01/15 10:29:28;;;;;;;4.13;0.90;;;9.90;69.70;;;;;;4919739;29;20016;-75
2023/01/15 10:32:21;;;;;;;4.43;1.23;;;10.00;69.50;;;;;;4938864;29;20044;-75
2023/01/15 10:35:06;;;;;;;2.42;1.08;;;10.00;69.30;;;;;;4927037;29;20071;-77
2023/01/15 10:37:37;;;;;;;3.53;1.38;;;10.10;69.60;;;;;;4932139;29;20028;-75
2023/01/15 10:40:09;;;;;;;1.73;1.10;;;10.10;69.70;;;;;;4940982;29;20067;-75
2023/01/15 10:42:53;;;;;;;1.67;0.70;;;10.10;69.70;;;;;;4938595;29;20091;-75
2023/01/15 10:45:30;;;;;;;3.20;1.27;;;10.10;69.30;;;;;;4939034;29;20513;-75
2023/01/15 10:48:20;;;;;;;0.95;0.68;;;10.00;69.20;;;;;;4912081;29;20112;-75
2023/01/15 10:50:47;;;;;;;1.52;0.90;;;9.90;69.20;;;;;;4937729;29;20027;-75
2023/01/15 10:53:25;;;;;;;1.63;0.70;;;9.80;69.30;;;;;;4936712;29;20024;-76
2023/01/15 10:55:54;;;;;;;1.52;1.25;;;9.80;69.40;;;;;;4937241;29;20039;-76
2023/01/15 10:58:28;;;;;;;3.40;1.13;;;9.90;69.70;;;;;;4920005;29;20091;-75
2023/01/15 11:01:02;;;;;;;4.07;1.33;;;10.20;69.50;;;;;;4938934;29;20028;-76
2023/01/15 11:03:36;;;;;;;4.63;1.27;;;10.30;69.70;;;;;;4920970;29;20036;-77
2023/01/15 11:06:05;;;;;;;6.32;1.00;;;10.30;68.60;;;;;;4937570;29;20048;-76
2023/01/15 11:08:32;;;;;;;2.33;1.30;;;10.50;68.90;;;;;;4920287;29;20465;-77
2023/01/15 11:19:35;;;;;;;3.00;1.40;;;10.50;69.10;;;;;;4924908;29;20569;-79
2023/01/15 11:19:41;;;;;;;3.65;1.17;;;10.60;68.80;;;;;;4930703;29;20414;-77
2023/01/15 11:22:11;;;;;;;4.95;0.98;;;10.40;69.10;;;;;;4934153;29;20039;-76
2023/01/15 11:24:59;;;;;;;2.08;1.15;;;10.50;69.00;;;;;;4937870;29;20054;-76
2023/01/15 11:27:32;;;;;;;3.50;1.27;;;10.30;68.70;;;;;;4932302;29;20508;-76
2023/01/15 11:30:01;;;;;;;5.40;1.20;;;10.30;68.50;;;;;;4935015;29;20383;-78
2023/01/15 11:32:37;;;;;;;5.38;1.10;;;10.50;69.30;;;;;;4920282;29;20395;-77
2023/01/15 11:35:17;;;;;;;1.75;1.25;;;10.60;69.00;;;;;;4929276;29;20043;-78
2023/01/15 11:37:43;;;;;;;3.17;0.80;;;10.50;68.30;;;;;;4931692;29;20036;-76
2023/01/15 11:40:22;;;;;;;2.35;0.85;;;10.50;67.50;;;;;;4915211;29;20046;-77
2023/01/15 11:51:15;;;;;;;3.00;1.45;;;10.50;66.70;;;;;;4939478;29;20038;-77
2023/01/15 11:53:46;;;;;;;3.00;1.30;;;10.70;67.40;;;;;;4935971;29;20036;-76
2023/01/15 11:56:22;;;;;;;1.73;1.10;;;10.70;65.70;;;;;;4921866;29;20027;-77
2023/01/15 11:58:56;;;;;;;7.45;1.48;;;10.90;65.50;;;;;;4916533;29;20574;-78
2023/01/15 12:01:27;;;;;;;4.93;1.20;;;10.80;64.90;;;;;;4921958;29;20039;-75
2023/01/15 12:03:54;;;;;;;2.13;0.90;;;10.90;65.10;;;;;;4918022;29;20471;-84
2023/01/15 12:06:20;;;;;;;2.78;1.10;;;10.80;64.80;;;;;;4918224;29;20530;-79
2023/01/15 12:08:54;;;;;;;6.00;1.60;;;10.80;65.10;;;;;;4918031;29;20035;-79
2023/01/15 12:11:32;;;;;;;2.45;1.10;;;10.80;65.20;;;;;;4936456;29;20035;-79
2023/01/15 12:14:22;;;;;;;3.42;1.35;;;10.60;64.70;;;;;;4934509;29;20039;-79
2023/01/15 12:17:08;;;;;;;;;;;10.70;65.40;;;;;;4922118;29;20698;-79
2023/01/15 12:19:59;;;;;;;1.98;0.95;;;10.90;65.10;;;;;;4899187;29;19911;-77
2023/01/15 12:22:48;;;;;;;1.90;0.82;;;10.90;63.60;;;;;;4905212;29;20154;-80
2023/01/15 12:25:26;;;;;;;4.88;1.40;;;11.00;63.60;;;;;;4919811;29;20028;-78
2023/01/15 12:28:02;;;;;;;3.80;1.00;;;10.80;63.20;;;;;;4935744;29;20027;-79
2023/01/15 12:30:40;;;;;;;6.43;1.30;;;10.80;63.30;;;;;;4918037;29;20111;-78
2023/01/15 12:33:34;;;;;;;4.30;1.10;;;10.70;64.20;;;;;;4902735;29;20028;-82
2023/01/15 12:36:30;;;;;;;1.65;0.90;;;10.70;64.00;;;;;;4906177;29;20020;-78
2023/01/15 12:39:24;;;;;;;3.40;1.15;;;10.70;64.00;;;;;;4916397;29;20055;-78
2023/01/15 12:45:06;;;;;;;4.80;2.10;;;10.80;63.90;;;;;;4927738;29;20030;-78
2023/01/15 12:48:11;;;;;;;3.00;1.10;;;10.80;64.20;;;;;;4900831;29;20036;-78
2023/01/15 12:50:45;;;;;;;2.35;1.08;;;10.80;63.50;;;;;;4885701;29;20108;-78
2023/01/15 12:53:28;;;;;;;5.43;1.20;;;10.80;64.50;;;;;;4919271;29;20024;-78
2023/01/15 12:56:12;;;;;;;1.15;0.60;;;10.70;64.00;;;;;;4919070;29;20031;-78
2023/01/15 12:58:47;;;;;;;3.53;0.85;;;10.60;63.50;;;;;;4936974;29;20095;-78
2023/01/15 13:01:30;;;;;;;1.45;0.60;;;10.50;63.90;;;;;;4933079;29;20063;-77
2023/01/15 13:04:04;;;;;;;3.33;0.88;;;10.60;64.40;;;;;;4937963;29;20035;-76
2023/01/15 13:06:31;;;;;;;5.32;2.00;;;10.60;64.40;;;;;;4917058;29;20047;-79
2023/01/15 13:09:23;;;;;;;4.75;1.10;;;10.70;64.30;;;;;;4937562;29;20558;-77
2023/01/15 13:11:48;;;;;;;1.67;1.13;;;10.50;64.50;;;;;;4933378;29;20094;-76
2023/01/15 13:14:20;;;;;;;2.55;1.65;;;10.60;64.40;;;;;;4937301;29;20066;-77
2023/01/15 13:17:05;;;;;;;3.95;1.35;;;10.60;64.80;;;;;;4935137;29;20027;-77
2023/01/15 13:19:40;;;;;;;2.22;1.38;;;10.50;64.00;;;;;;4919531;29;20538;-79
2023/01/15 13:22:13;;;;;;;2.45;1.45;;;10.30;64.50;;;;;;4919561;29;20502;-81
2023/01/15 13:25:05;;;;;;;4.25;1.27;;;10.30;64.80;;;;;;4918631;29;20030;-80
2023/01/15 13:28:00;;;;;;;6.38;1.38;;;10.30;64.90;;;;;;4935763;29;20106;-79
2023/01/15 13:30:52;;;;;;;3.95;1.20;;;10.40;64.80;;;;;;4934647;29;20027;-78
2023/01/15 13:33:33;;;;;;;5.05;1.20;;;10.60;64.20;;;;;;4919393;29;20111;-80
2023/01/15 13:36:24;;;;;;;3.33;1.27;;;10.70;64.40;;;;;;4914934;29;20119;-80
2023/01/15 13:38:57;;;;;;;2.90;1.92;;;10.70;64.50;;;;;;4916385;29;20032;-80
2023/01/15 13:44:23;;;;;;;8.82;1.30;;;10.90;64.10;;;;;;4929664;29;20091;-79
2023/01/15 13:46:59;;;;;;;2.65;1.13;;;10.90;64.20;;;;;;4926738;29;20028;-80
2023/01/15 13:49:38;;;;;;;2.00;1.10;;;11.00;64.90;;;;;;4929152;29;20028;-80
2023/01/15 13:52:06;;;;;;;2.50;0.77;;;11.00;64.40;;;;;;4917144;29;20028;-78
2023/01/15 13:54:39;;;;;;;1.10;1.00;;;11.00;64.60;;;;;;4923502;29;20503;-78
2023/01/15 13:57:09;;;;;;;6.45;1.38;;;11.10;64.30;;;;;;4929367;29;20035;-79
2023/01/15 13:59:43;;;;;;;3.42;1.00;;;11.20;64.00;;;;;;4933100;29;20083;-79
2023/01/15 14:02:31;;;;;;;2.13;1.20;;;11.20;64.10;;;;;;4936741;29;20031;-78
2023/01/15 14:04:57;;;;;;;1.70;1.13;;;11.00;62.80;;;;;;4936501;29;20060;-79
2023/01/15 14:07:41;;;;;;;2.38;1.25;;;10.90;63.40;;;;;;4936674;29;20458;-78
2023/01/15 14:10:29;;;;;;;4.88;0.95;;;10.80;63.30;;;;;;4918292;29;20051;-78
2023/01/15 14:13:12;;;;;;;1.75;0.80;;;10.70;63.30;;;;;;4936701;29;20388;-78
2023/01/15 14:16:13;;;;;;;4.93;1.02;;;10.70;62.90;;;;;;4923063;29;20473;-79
2023/01/15 14:18:49;;;;;;;4.97;1.40;;;10.70;63.50;;;;;;4906698;29;20040;-79
2023/01/15 14:21:36;;;;;;;4.20;1.48;;;10.80;63.60;;;;;;4918313;29;20456;-78
2023/01/15 14:24:31;;;;;;;2.60;1.92;;;10.80;63.60;;;;;;4932914;29;20054;-81
2023/01/15 14:27:25;;;;;;;4.15;1.00;;;10.80;63.00;;;;;;4936128;29;20031;-79
2023/01/15 14:30:24;;;;;;;3.95;1.73;;;10.90;63.10;;;;;;4935968;29;20530;-80
2023/01/15 14:33:26;;;;;;;7.80;1.52;;;10.80;62.40;;;;;;4903523;29;20067;-78
2023/01/15 14:35:52;;;;;;;2.40;1.65;;;10.90;62.70;;;;;;4918022;29;20395;-77
2023/01/15 14:38:25;;;;;;;7.30;1.63;;;10.80;63.30;;;;;;4899152;29;20032;-80
2023/01/15 14:40:58;;;;;;;7.07;1.55;;;10.80;63.30;;;;;;4929056;29;20027;-76
2023/01/15 14:43:27;;;;;;;6.65;1.83;;;10.80;63.80;;;;;;4934498;29;20042;-77
2023/01/15 14:45:54;;;;;;;6.70;1.30;;;10.80;64.10;;;;;;4935846;29;20578;-76
2023/01/15 14:48:29;;;;;;;3.22;1.00;;;10.70;64.10;;;;;;4939975;29;20058;-76
2023/01/15 14:51:17;;;;;;;7.13;0.90;;;10.80;64.50;;;;;;4940105;29;20040;-77
2023/01/15 14:53:48;;;;;;;3.63;1.13;;;10.70;64.80;;;;;;4930088;29;20380;-76
2023/01/15 14:56:35;;;;;;;3.20;1.20;;;10.70;64.90;;;;;;4940204;29;20047;-76
2023/01/15 14:59:14;;;;;;;3.50;1.27;;;10.70;65.30;;;;;;4921242;29;20052;-76
2023/01/15 15:01:48;;;;;;;7.18;1.77;;;10.70;65.20;;;;;;4904377;29;20024;-76
2023/01/15 15:04:38;;;;;;;1.80;1.10;;;10.70;66.00;;;;;;4920960;29;20036;-76
2023/01/15 15:07:27;;;;;;;2.90;1.63;;;10.70;66.00;;;;;;4925825;29;20495;-76
2023/01/15 15:10:30;;;;;;;2.63;1.23;;;10.70;66.70;;;;;;4936938;29;20046;-76
2023/01/15 15:13:01;;;;;;;3.70;1.33;;;10.50;67.80;;;;;;4938746;29;20107;-76
2023/01/15 15:15:52;;;;;;;6.55;1.80;;;10.50;69.10;;;;;;4920407;29;20140;-76
2023/01/15 15:18:37;;;;;;;2.88;1.27;;;10.30;71.70;;;;;;4938948;29;20091;-76
2023/01/15 15:21:09;;;;;;;4.30;1.20;;;10.20;72.60;;;;;;4938421;29;20031;-76
2023/01/15 15:23:41;;;;;;;5.18;1.27;;;10.10;73.00;;;;;;4938027;29;20058;-76
2023/01/15 15:26:27;;;;;;;4.80;1.45;;;10.10;73.60;;;;;;4921438;29;20055;-80
2023/01/15 15:28:59;;;;;;;3.33;1.33;;;10.00;74.10;;;;;;4921850;29;20107;-81
2023/01/15 15:31:27;;;;;;;2.00;1.45;;;10.00;74.30;;;;;;4937260;29;20740;-82
2023/01/15 15:33:55;;;;;;;4.68;2.30;;;10.00;74.50;;;;;;4939802;29;20058;-82
2023/01/15 15:36:23;;;;;;;13.70;6.55;;;10.00;74.80;;;;;;4939271;29;20020;-80
2023/01/15 15:39:01;;;;;;;16.23;7.32;;;10.00;75.10;;;;;;4939686;29;20424;-82
2023/01/15 15:50:28;;;;;;;10.23;3.95;;;10.00;75.40;;;;;;4934333;29;20138;-76
2023/01/15 15:52:55;;;;;;;4.70;2.42;;;10.00;75.00;;;;;;4930290;29;20016;-76
2023/01/15 15:55:22;;;;;;;12.02;2.25;;;10.00;75.20;;;;;;4928976;29;20055;-76
2023/01/15 15:57:56;;;;;;;5.35;2.15;;;9.90;75.60;;;;;;4933814;29;20035;-76
2023/01/15 16:00:32;;;;;;;3.22;1.75;;;9.90;75.50;;;;;;4920407;29;20031;-76
2023/01/15 16:03:21;;;;;;;3.38;1.45;;;9.90;75.20;;;;;;4934533;29;20028;-76
2023/01/15 16:06:07;;;;;;;7.40;1.92;;;9.90;75.50;;;;;;4932645;29;20055;-76
2023/01/15 16:08:34;;;;;;;5.22;1.67;;;9.80;75.60;;;;;;4934758;29;20045;-76
2023/01/15 16:11:05;;;;;;;9.43;1.77;;;9.90;75.90;;;;;;4936914;29;20048;-76
2023/01/15 16:13:52;;;;;;;8.13;1.83;;;9.70;75.70;;;;;;4918578;29;20028;-76
2023/01/15 16:16:19;;;;;;;4.90;1.70;;;9.70;75.70;;;;;;4935129;29;20028;-76
2023/01/15 16:19:06;;;;;;;6.10;1.77;;;9.70;76.00;;;;;;4923288;29;20086;-76
2023/01/15 16:21:39;;;;;;;6.07;1.77;;;9.70;76.00;;;;;;4935727;29;20470;-76
2023/01/15 16:24:20;;;;;;;8.98;2.70;;;9.60;76.20;;;;;;4933831;29;20047;-76
2023/01/15 16:26:54;;;;;;;4.88;1.70;;;9.60;76.20;;;;;;4935271;29;20031;-76
2023/01/15 16:29:23;;;;;;;2.63;1.45;;;9.60;76.50;;;;;;4932018;29;20554;-76
2023/01/15 16:31:50;;;;;;;1.17;1.08;;;9.50;76.20;;;;;;4931630;29;20107;-76
2023/01/15 16:34:22;;;;;;;5.22;1.80;;;9.50;76.00;;;;;;4884342;29;20542;-76
2023/01/15 16:36:48;;;;;;;8.05;1.73;;;9.50;76.10;;;;;;4929887;29;20070;-76
2023/01/15 16:39:23;;;;;;;7.25;1.63;;;9.50;76.10;;;;;;4928589;29;20064;-76
2023/01/15 16:41:50;;;;;;;7.93;1.90;;;9.50;76.10;;;;;;4935304;29;20028;-76
2023/01/15 16:44:41;;;;;;;5.68;1.70;;;9.50;76.00;;;;;;4932419;29;20027;-76
2023/01/15 16:47:24;;;;;;;5.72;1.65;;;9.50;75.90;;;;;;4915383;29;20038;-76
2023/01/15 16:49:50;;;;;;;9.00;1.95;;;9.50;75.70;;;;;;4928421;29;20470;-76
2023/01/15 16:52:34;;;;;;;5.15;2.20;;;9.50;75.50;;;;;;4928159;29;20040;-76
2023/01/15 16:55:00;;;;;;;2.10;1.45;;;9.40;75.30;;;;;;4914062;29;20046;-76
2023/01/15 16:57:31;;;;;;;15.82;1.90;;;9.40;74.90;;;;;;4936839;29;20043;-76
2023/01/15 17:00:04;;;;;;;8.93;1.55;;;9.30;74.70;;;;;;4935650;29;20047;-76
2023/01/15 17:02:57;;;;;;;4.45;1.30;;;9.30;74.70;;;;;;4913592;29;20041;-76
2023/01/15 17:05:24;;;;;;;2.90;1.48;;;9.30;73.80;;;;;;4921094;29;20047;-76
2023/01/15 17:07:52;;;;;;;11.77;2.33;;;9.30;73.90;;;;;;4936055;29;20126;-76
2023/01/15 17:10:20;;;;;;;5.78;1.30;;;9.30;73.80;;;;;;4933407;29;20103;-76
2023/01/15 17:12:46;;;;;;;3.17;1.55;;;9.30;73.70;;;;;;4936559;29;20043;-76
2023/01/15 17:15:18;;;;;;;5.30;2.55;;;9.20;73.30;;;;;;4931196;29;20031;-78
2023/01/15 17:17:51;;;;;;;5.35;1.83;;;9.10;72.90;;;;;;4933568;29;20230;-76
2023/01/15 17:20:19;;;;;;;11.80;2.30;;;9.10;72.50;;;;;;4936260;29;20110;-76
2023/01/15 17:22:47;;;;;;;4.18;2.10;;;9.00;72.50;;;;;;4918734;29;20431;-79
2023/01/15 17:25:33;;;;;;;5.03;1.73;;;9.00;72.60;;;;;;4936160;29;20739;-79
2023/01/15 17:28:02;;;;;;;8.07;1.75;;;9.00;72.50;;;;;;4919183;29;20147;-78
2023/01/15 17:30:32;;;;;;;4.88;1.58;;;9.00;72.90;;;;;;4914961;29;20070;-79
2023/01/15 17:33:03;;;;;;;1.70;1.15;;;9.00;73.10;;;;;;4919607;29;20063;-80
2023/01/15 17:35:35;;;;;;;6.75;1.15;;;9.00;73.20;;;;;;4934611;29;20510;-80
2023/01/15 17:38:00;;;;;;;6.40;1.63;;;8.90;73.20;;;;;;4914953;29;20028;-80
2023/01/15 17:40:26;;;;;;;2.70;1.30;;;8.90;73.40;;;;;;4936123;29;20038;-83
2023/01/15 17:42:57;;;;;;;3.08;1.13;;;8.90;73.30;;;;;;4935361;29;20032;-80
2023/01/15 17:45:26;;;;;;;1.98;1.23;;;8.90;73.10;;;;;;4919059;29;20110;-82
2023/01/15 17:47:51;;;;;;;3.22;1.40;;;8.80;73.50;;;;;;4918882;29;20028;-82
2023/01/15 17:50:17;;;;;;;2.58;1.15;;;8.90;73.40;;;;;;4916117;29;20027;-84
2023/01/15 17:52:44;;;;;;;3.10;1.33;;;8.80;73.30;;;;;;4935708;29;20066;-81
2023/01/15 18:06:18;;;;;;;5.03;1.30;;;8.80;73.00;;;;;;4937315;29;20047;-85
2023/01/15 18:08:50;;;;;;;5.18;1.67;;;8.80;72.80;;;;;;4936309;29;20034;-84
2023/01/15 18:11:18;;;;;;;2.45;1.23;;;8.70;73.00;;;;;;4920685;29;20032;-83
2023/01/15 18:13:44;;;;;;;2.58;0.77;;;8.70;73.30;;;;;;4936140;29;20030;-87
2023/01/15 18:16:10;;;;;;;7.53;1.33;;;8.60;73.10;;;;;;4936072;29;20032;-85
2023/01/15 18:18:36;;;;;;;2.70;1.25;;;8.70;73.30;;;;;;4942862;29;20115;-87
2023/01/15 18:21:02;;;;;;;2.28;1.25;;;8.70;73.00;;;;;;4937882;29;20507;-81
2023/01/15 18:23:29;;;;;;;2.00;1.30;;;8.70;73.10;;;;;;4926188;29;20020;-77
2023/01/15 18:25:55;;;;;;;5.07;1.48;;;8.70;72.90;;;;;;4923306;29;20058;-85
2023/01/15 18:28:21;;;;;;;1.92;1.30;;;8.70;72.80;;;;;;4923652;29;20020;-78
2023/01/15 18:30:47;;;;;;;1.45;1.35;;;8.70;73.10;;;;;;4939233;29;20131;-80
2023/01/15 18:33:13;;;;;;;3.88;1.33;;;8.60;73.00;;;;;;4923413;29;20815;-85
2023/01/15 18:35:39;;;;;;;3.05;1.30;;;8.60;73.00;;;;;;4943474;29;20023;-80
2023/01/15 18:38:04;;;;;;;2.50;1.27;;;8.50;73.20;;;;;;4939373;29;20526;-84
2023/01/15 18:40:30;;;;;;;2.78;1.98;;;8.50;73.50;;;;;;4936088;29;20041;-80
2023/01/15 18:48:29;;;;;;;4.07;1.63;;;8.40;74.20;;;;;;4927091;29;20036;-86
2023/01/15 18:51:06;;;;;;;1.58;1.40;;;8.40;74.40;;;;;;4919192;29;20023;-82
2023/01/15 18:53:31;;;;;;;7.97;3.35;;;8.40;75.00;;;;;;4905044;29;20518;-88
2023/01/15 18:56:04;;;;;;;4.85;2.63;;;8.40;75.20;;;;;;4937500;29;20063;-87
2023/01/15 18:58:30;;;;;;;3.42;2.30;;;8.40;75.10;;;;;;4927087;29;20392;-85
2023/01/15 19:00:56;;;;;;;4.13;2.10;;;8.40;75.10;;;;;;4905134;29;20063;-88
2023/01/15 19:03:22;;;;;;;3.72;1.88;;;8.40;75.00;;;;;;4921337;29;20181;-84
2023/01/15 19:05:48;;;;;;;4.85;2.25;;;8.30;75.30;;;;;;4916931;29;20027;-82
2023/01/15 19:08:16;;;;;;;5.95;3.22;;;8.30;75.50;;;;;;4919153;29;20036;-84
2023/01/15 19:10:42;;;;;;;6.20;2.45;;;8.30;75.50;;;;;;4926676;29;20024;-86
2023/01/15 19:13:08;;;;;;;3.13;1.33;;;8.30;75.60;;;;;;4925296;29;20036;-83
2023/01/15 19:21:06;;;;;;;5.72;2.10;;;8.30;76.50;;;;;;4926446;29;20042;-79
2023/01/15 19:23:32;;;;;;;6.05;1.98;;;8.30;76.80;;;;;;4916968;29;20118;-80
2023/01/15 19:25:58;;;;;;;5.05;2.47;;;8.40;76.40;;;;;;4920624;29;20075;-82
2023/01/15 19:28:24;;;;;;;8.63;2.90;;;8.40;76.50;;;;;;4919773;29;20036;-80
2023/01/15 19:33:34;;;;;;;11.27;4.68;;;8.30;77.30;;;;;;4921268;29;20577;-81
2023/01/15 19:36:00;;;;;;;6.35;2.88;;;8.40;77.90;;;;;;4920942;29;20036;-81
2023/01/15 19:38:26;;;;;;;8.32;2.95;;;8.30;78.90;;;;;;4904133;29;20486;-82
2023/01/15 19:40:51;;;;;;;7.47;2.47;;;8.30;79.40;;;;;;4922168;29;20040;-79
2023/01/15 19:54:54;;;;;;;6.10;2.05;;;8.10;80.80;;;;;;4936667;29;20443;-86
2023/01/15 19:57:01;;;;;;;5.25;2.33;;;8.10;81.00;;;;;;4925087;29;20040;-87
2023/01/15 19:59:26;;;;;;;3.85;2.63;;;8.20;81.30;;;;;;4904247;29;20025;-87
2023/01/15 20:01:52;;;;;;;8.40;2.97;;;8.10;81.50;;;;;;4921904;29;20044;-86
2023/01/15 20:04:17;;;;;;;5.70;2.63;;;8.20;81.30;;;;;;4929244;29;20036;-85
2023/01/15 20:06:43;;;;;;;1.98;1.58;;;8.20;81.40;;;;;;4938976;29;20461;-87
2023/01/15 20:09:09;;;;;;;3.00;1.52;;;8.10;82.00;;;;;;4929746;29;20706;-84
2023/01/15 20:13:48;;;;;;;2.85;1.20;;;8.20;82.20;;;;;;4936690;29;20032;-85
2023/01/15 20:14:20;;;;;;;4.60;1.77;;;8.10;82.60;;;;;;4938510;29;20032;-84
2023/01/15 20:16:48;;;;;;;6.43;2.40;;;8.20;82.70;;;;;;4937611;29;20103;-84
2023/01/15 20:19:14;;;;;;;2.95;1.35;;;8.20;83.00;;;;;;4919714;29;20342;-87
2023/01/15 20:21:39;;;;;;;1.83;1.35;;;8.20;82.90;;;;;;4919212;29;20046;-85
2023/01/15 20:24:05;;;;;;;2.60;1.75;;;8.20;82.90;;;;;;4920392;29;20059;-85